sensor_id;sensor_type;location;lat;lon;timestamp;P1;durP1;ratioP1;P2;durP2;ratioP2
2177;SDS011;1095;50.992;6.798;2023-07-20T00:02:07;9.18;;;6.35;;
2177;SDS011;1095;50.992;6.798;2023-07-20T00:04:34;10.68;;;6.68;;
2177;SDS011;1095;50.992;6.798;2023-07-20T00:07:01;11.57;;;6.05;;
2177;SDS011;1095;50.992;6.798;2023-07-20T00:09:28;12.50;;;5.97;;
2177;SDS011;1095;50.992;6.798;2023-07-20T00:11:56;10.40;;;5.47;;
2177;SDS011;1095;50.992;6.798;2023-07-20T00:14:24;10.02;;;6.53;;
2177;SDS011;1095;50.992;6.798;2023-07-20T00:16:51;8.88;;;6.13;;
2177;SDS011;1095;50.992;6.798;2023-07-20T00:19:23;10.10;;;5.78;;
2177;SDS011;1095;50.992;6.798;2023-07-20T00:21:50;9.57;;;6.20;;
2177;SDS011;1095;50.992;6.798;2023-07-20T00:24:17;10.20;;;6.00;;
2177;SDS011;1095;50.992;6.798;2023-07-20T00:26:44;8.43;;;5.85;;
2177;SDS011;1095;50.992;6.798;2023-07-20T00:29:12;7.68;;;5.78;;
2177;SDS011;1095;50.992;6.798;2023-07-20T00:31:38;11.25;;;5.93;;
2177;SDS011;1095;50.992;6.798;2023-07-20T00:34:05;10.52;;;6.53;;
2177;SDS011;1095;50.992;6.798;2023-07-20T00:36:33;10.02;;;5.80;;
2177;SDS011;1095;50.992;6.798;2023-07-20T00:39:00;7.22;;;5.95;;
2177;SDS011;1095;50.992;6.798;2023-07-20T00:41:27;7.50;;;5.97;;
2177;SDS011;1095;50.992;6.798;2023-07-20T00:43:54;11.50;;;5.90;;
2177;SDS011;1095;50.992;6.798;2023-07-20T00:46:21;12.77;;;6.35;;
2177;SDS011;1095;50.992;6.798;2023-07-20T00:48:50;7.97;;;5.70;;
2177;SDS011;1095;50.992;6.798;2023-07-20T00:51:17;10.98;;;6.30;;
2177;SDS011;1095;50.992;6.798;2023-07-20T00:53:46;11.13;;;6.28;;
2177;SDS011;1095;50.992;6.798;2023-07-20T00:56:13;12.68;;;6.07;;
2177;SDS011;1095;50.992;6.798;2023-07-20T00:58:39;8.93;;;6.05;;
2177;SDS011;1095;50.992;6.798;2023-07-20T01:01:06;11.60;;;6.05;;
2177;SDS011;1095;50.992;6.798;2023-07-20T01:03:33;10.45;;;5.85;;
2177;SDS011;1095;50.992;6.798;2023-07-20T01:06:02;11.65;;;6.50;;
2177;SDS011;1095;50.992;6.798;2023-07-20T01:08:37;10.25;;;5.68;;
2177;SDS011;1095;50.992;6.798;2023-07-20T01:11:12;8.75;;;6.00;;
2177;SDS011;1095;50.992;6.798;2023-07-20T01:13:47;7.75;;;5.40;;
2177;SDS011;1095;50.992;6.798;2023-07-20T01:16:14;11.30;;;6.50;;
2177;SDS011;1095;50.992;6.798;2023-07-20T01:18:41;10.45;;;5.90;;
2177;SDS011;1095;50.992;6.798;2023-07-20T01:21:09;10.40;;;5.72;;
2177;SDS011;1095;50.992;6.798;2023-07-20T01:24:00;9.77;;;5.72;;
2177;SDS011;1095;50.992;6.798;2023-07-20T01:26:58;9.98;;;6.05;;
2177;SDS011;1095;50.992;6.798;2023-07-20T01:32:38;9.05;;;5.82;;
2177;SDS011;1095;50.992;6.798;2023-07-20T01:35:08;8.13;;;5.43;;
2177;SDS011;1095;50.992;6.798;2023-07-20T01:37:39;8.15;;;5.32;;
2177;SDS011;1095;50.992;6.798;2023-07-20T01:40:07;7.78;;;4.80;;
2177;SDS011;1095;50.992;6.798;2023-07-20T01:42:36;6.57;;;4.80;;
2177;SDS011;1095;50.992;6.798;2023-07-20T01:45:01;10.45;;;4.97;;
2177;SDS011;1095;50.992;6.798;2023-07-20T01:47:28;7.72;;;4.90;;
2177;SDS011;1095;50.992;6.798;2023-07-20T01:49:56;6.18;;;5.13;;
2177;SDS011;1095;50.992;6.798;2023-07-20T01:52:23;6.18;;;4.85;;
2177;SDS011;1095;50.992;6.798;2023-07-20T01:54:50;7.13;;;4.90;;
2177;SDS011;1095;50.992;6.798;2023-07-20T01:57:16;6.90;;;4.72;;
2177;SDS011;1095;50.992;6.798;2023-07-20T01:59:43;9.00;;;4.97;;
2177;SDS011;1095;50.992;6.798;2023-07-20T02:02:10;10.57;;;5.65;;
2177;SDS011;1095;50.992;6.798;2023-07-20T02:04:36;7.10;;;5.00;;
2177;SDS011;1095;50.992;6.798;2023-07-20T02:07:04;7.45;;;4.60;;
2177;SDS011;1095;50.992;6.798;2023-07-20T02:09:31;7.95;;;5.85;;
2177;SDS011;1095;50.992;6.798;2023-07-20T02:11:57;7.95;;;5.10;;
2177;SDS011;1095;50.992;6.798;2023-07-20T02:14:24;7.95;;;5.22;;
2177;SDS011;1095;50.992;6.798;2023-07-20T02:16:51;9.35;;;5.55;;
2177;SDS011;1095;50.992;6.798;2023-07-20T02:19:19;9.20;;;5.25;;
2177;SDS011;1095;50.992;6.798;2023-07-20T02:21:46;8.27;;;5.45;;
2177;SDS011;1095;50.992;6.798;2023-07-20T02:24:14;9.15;;;5.25;;
2177;SDS011;1095;50.992;6.798;2023-07-20T02:26:41;9.55;;;5.82;;
2177;SDS011;1095;50.992;6.798;2023-07-20T02:29:08;7.47;;;5.30;;
2177;SDS011;1095;50.992;6.798;2023-07-20T02:31:36;9.60;;;5.35;;
2177;SDS011;1095;50.992;6.798;2023-07-20T02:34:04;7.75;;;5.55;;
2177;SDS011;1095;50.992;6.798;2023-07-20T02:36:31;8.27;;;5.38;;
2177;SDS011;1095;50.992;6.798;2023-07-20T02:38:57;13.38;;;5.95;;
2177;SDS011;1095;50.992;6.798;2023-07-20T02:41:25;8.52;;;5.95;;
2177;SDS011;1095;50.992;6.798;2023-07-20T02:43:52;14.20;;;6.78;;
2177;SDS011;1095;50.992;6.798;2023-07-20T02:46:19;13.73;;;6.15;;
2177;SDS011;1095;50.992;6.798;2023-07-20T02:48:45;11.52;;;5.82;;
2177;SDS011;1095;50.992;6.798;2023-07-20T02:51:12;10.95;;;6.03;;
2177;SDS011;1095;50.992;6.798;2023-07-20T02:53:38;10.02;;;5.82;;
2177;SDS011;1095;50.992;6.798;2023-07-20T02:56:05;11.45;;;5.97;;
2177;SDS011;1095;50.992;6.798;2023-07-20T02:58:33;11.10;;;6.20;;
2177;SDS011;1095;50.992;6.798;2023-07-20T03:01:02;10.43;;;6.32;;
2177;SDS011;1095;50.992;6.798;2023-07-20T03:03:28;13.43;;;5.97;;
2177;SDS011;1095;50.992;6.798;2023-07-20T03:05:55;10.52;;;6.07;;
2177;SDS011;1095;50.992;6.798;2023-07-20T03:08:24;10.57;;;6.07;;
2177;SDS011;1095;50.992;6.798;2023-07-20T03:10:50;11.00;;;6.30;;
2177;SDS011;1095;50.992;6.798;2023-07-20T03:13:17;11.80;;;6.05;;
2177;SDS011;1095;50.992;6.798;2023-07-20T03:15:45;10.43;;;5.78;;
2177;SDS011;1095;50.992;6.798;2023-07-20T03:18:11;8.38;;;5.85;;
2177;SDS011;1095;50.992;6.798;2023-07-20T03:20:38;9.25;;;6.28;;
2177;SDS011;1095;50.992;6.798;2023-07-20T03:23:05;10.88;;;5.93;;
2177;SDS011;1095;50.992;6.798;2023-07-20T03:25:32;9.18;;;5.95;;
2177;SDS011;1095;50.992;6.798;2023-07-20T03:27:58;10.25;;;5.88;;
2177;SDS011;1095;50.992;6.798;2023-07-20T03:30:25;13.88;;;6.40;;
2177;SDS011;1095;50.992;6.798;2023-07-20T03:32:53;10.43;;;5.85;;
2177;SDS011;1095;50.992;6.798;2023-07-20T03:35:19;11.18;;;6.03;;
2177;SDS011;1095;50.992;6.798;2023-07-20T03:37:46;13.65;;;6.63;;
2177;SDS011;1095;50.992;6.798;2023-07-20T03:40:13;14.13;;;6.55;;
2177;SDS011;1095;50.992;6.798;2023-07-20T03:42:41;9.50;;;5.97;;
2177;SDS011;1095;50.992;6.798;2023-07-20T03:45:08;14.13;;;6.22;;
2177;SDS011;1095;50.992;6.798;2023-07-20T03:47:35;12.35;;;5.80;;
2177;SDS011;1095;50.992;6.798;2023-07-20T03:50:03;10.57;;;6.30;;
2177;SDS011;1095;50.992;6.798;2023-07-20T03:52:31;13.68;;;6.30;;
2177;SDS011;1095;50.992;6.798;2023-07-20T03:54:57;10.02;;;6.45;;
2177;SDS011;1095;50.992;6.798;2023-07-20T03:57:24;10.32;;;6.18;;
2177;SDS011;1095;50.992;6.798;2023-07-20T03:59:50;11.07;;;6.18;;
2177;SDS011;1095;50.992;6.798;2023-07-20T04:02:17;13.40;;;6.35;;
2177;SDS011;1095;50.992;6.798;2023-07-20T04:04:44;14.48;;;6.25;;
2177;SDS011;1095;50.992;6.798;2023-07-20T04:07:12;14.90;;;6.80;;
2177;SDS011;1095;50.992;6.798;2023-07-20T04:09:38;10.00;;;6.40;;
2177;SDS011;1095;50.992;6.798;2023-07-20T04:12:06;13.90;;;6.32;;
2177;SDS011;1095;50.992;6.798;2023-07-20T04:14:33;12.70;;;6.22;;
2177;SDS011;1095;50.992;6.798;2023-07-20T04:17:00;12.27;;;6.55;;
2177;SDS011;1095;50.992;6.798;2023-07-20T04:19:26;10.80;;;6.60;;
2177;SDS011;1095;50.992;6.798;2023-07-20T04:21:53;11.20;;;6.57;;
2177;SDS011;1095;50.992;6.798;2023-07-20T04:24:21;9.80;;;7.35;;
2177;SDS011;1095;50.992;6.798;2023-07-20T04:26:47;11.93;;;7.22;;
2177;SDS011;1095;50.992;6.798;2023-07-20T04:29:14;15.20;;;7.50;;
2177;SDS011;1095;50.992;6.798;2023-07-20T04:31:40;17.23;;;7.57;;
2177;SDS011;1095;50.992;6.798;2023-07-20T04:34:07;12.07;;;7.60;;
2177;SDS011;1095;50.992;6.798;2023-07-20T04:36:34;12.13;;;7.32;;
2177;SDS011;1095;50.992;6.798;2023-07-20T04:39:00;14.13;;;7.10;;
2177;SDS011;1095;50.992;6.798;2023-07-20T04:41:28;15.38;;;7.03;;
2177;SDS011;1095;50.992;6.798;2023-07-20T04:43:55;12.88;;;7.25;;
2177;SDS011;1095;50.992;6.798;2023-07-20T04:46:21;13.48;;;7.85;;
2177;SDS011;1095;50.992;6.798;2023-07-20T04:48:48;13.50;;;8.15;;
2177;SDS011;1095;50.992;6.798;2023-07-20T04:51:15;12.07;;;7.97;;
2177;SDS011;1095;50.992;6.798;2023-07-20T04:53:45;12.27;;;7.68;;
2177;SDS011;1095;50.992;6.798;2023-07-20T04:56:12;13.73;;;8.02;;
2177;SDS011;1095;50.992;6.798;2023-07-20T04:58:40;12.55;;;7.50;;
2177;SDS011;1095;50.992;6.798;2023-07-20T05:01:07;9.23;;;6.72;;
2177;SDS011;1095;50.992;6.798;2023-07-20T05:03:34;12.43;;;7.25;;
2177;SDS011;1095;50.992;6.798;2023-07-20T05:06:01;20.63;;;8.23;;
2177;SDS011;1095;50.992;6.798;2023-07-20T05:08:27;12.93;;;8.07;;
2177;SDS011;1095;50.992;6.798;2023-07-20T05:10:54;15.38;;;8.18;;
2177;SDS011;1095;50.992;6.798;2023-07-20T05:13:21;14.23;;;8.38;;
2177;SDS011;1095;50.992;6.798;2023-07-20T05:15:52;14.18;;;8.00;;
2177;SDS011;1095;50.992;6.798;2023-07-20T05:18:18;13.85;;;8.63;;
2177;SDS011;1095;50.992;6.798;2023-07-20T05:20:46;16.20;;;9.15;;
2177;SDS011;1095;50.992;6.798;2023-07-20T05:23:12;15.32;;;8.68;;
2177;SDS011;1095;50.992;6.798;2023-07-20T05:25:39;15.38;;;8.05;;
2177;SDS011;1095;50.992;6.798;2023-07-20T05:28:06;16.10;;;8.25;;
2177;SDS011;1095;50.992;6.798;2023-07-20T05:30:32;15.40;;;8.00;;
2177;SDS011;1095;50.992;6.798;2023-07-20T05:33:00;14.48;;;7.70;;
2177;SDS011;1095;50.992;6.798;2023-07-20T05:35:27;11.43;;;7.30;;
2177;SDS011;1095;50.992;6.798;2023-07-20T05:37:53;14.35;;;7.85;;
2177;SDS011;1095;50.992;6.798;2023-07-20T05:40:20;10.98;;;7.70;;
2177;SDS011;1095;50.992;6.798;2023-07-20T05:42:47;14.00;;;8.32;;
2177;SDS011;1095;50.992;6.798;2023-07-20T05:45:17;13.93;;;8.27;;
2177;SDS011;1095;50.992;6.798;2023-07-20T05:47:43;13.98;;;8.45;;
2177;SDS011;1095;50.992;6.798;2023-07-20T05:50:11;10.73;;;8.23;;
2177;SDS011;1095;50.992;6.798;2023-07-20T05:52:39;16.73;;;8.25;;
2177;SDS011;1095;50.992;6.798;2023-07-20T05:55:06;13.98;;;8.50;;
2177;SDS011;1095;50.992;6.798;2023-07-20T05:57:33;12.18;;;8.95;;
2177;SDS011;1095;50.992;6.798;2023-07-20T06:00:00;12.32;;;8.45;;
2177;SDS011;1095;50.992;6.798;2023-07-20T06:02:28;14.27;;;8.38;;
2177;SDS011;1095;50.992;6.798;2023-07-20T06:04:54;13.18;;;8.45;;
2177;SDS011;1095;50.992;6.798;2023-07-20T06:07:22;15.60;;;9.18;;
2177;SDS011;1095;50.992;6.798;2023-07-20T06:09:49;13.88;;;9.15;;
2177;SDS011;1095;50.992;6.798;2023-07-20T06:12:16;13.10;;;8.73;;
2177;SDS011;1095;50.992;6.798;2023-07-20T06:14:42;12.18;;;8.23;;
2177;SDS011;1095;50.992;6.798;2023-07-20T06:17:09;15.82;;;9.25;;
2177;SDS011;1095;50.992;6.798;2023-07-20T06:19:35;12.00;;;10.00;;
2177;SDS011;1095;50.992;6.798;2023-07-20T06:22:02;14.02;;;9.52;;
2177;SDS011;1095;50.992;6.798;2023-07-20T06:24:30;11.48;;;9.98;;
2177;SDS011;1095;50.992;6.798;2023-07-20T06:26:57;14.57;;;10.00;;
2177;SDS011;1095;50.992;6.798;2023-07-20T06:29:23;16.92;;;11.00;;
2177;SDS011;1095;50.992;6.798;2023-07-20T06:31:50;15.00;;;9.65;;
2177;SDS011;1095;50.992;6.798;2023-07-20T06:34:17;15.00;;;10.13;;
2177;SDS011;1095;50.992;6.798;2023-07-20T06:36:44;18.88;;;9.32;;
2177;SDS011;1095;50.992;6.798;2023-07-20T06:39:10;13.43;;;8.85;;
2177;SDS011;1095;50.992;6.798;2023-07-20T06:41:39;12.75;;;9.30;;
2177;SDS011;1095;50.992;6.798;2023-07-20T06:44:05;15.20;;;10.30;;
2177;SDS011;1095;50.992;6.798;2023-07-20T06:46:33;15.88;;;9.77;;
2177;SDS011;1095;50.992;6.798;2023-07-20T06:48:59;13.38;;;10.05;;
2177;SDS011;1095;50.992;6.798;2023-07-20T06:51:26;18.52;;;11.73;;
2177;SDS011;1095;50.992;6.798;2023-07-20T06:53:53;14.60;;;10.48;;
2177;SDS011;1095;50.992;6.798;2023-07-20T06:56:19;19.23;;;11.63;;
2177;SDS011;1095;50.992;6.798;2023-07-20T06:58:47;13.63;;;10.52;;
2177;SDS011;1095;50.992;6.798;2023-07-20T07:01:14;17.27;;;11.38;;
2177;SDS011;1095;50.992;6.798;2023-07-20T07:03:42;15.30;;;12.25;;
2177;SDS011;1095;50.992;6.798;2023-07-20T07:06:09;13.95;;;11.02;;
2177;SDS011;1095;50.992;6.798;2023-07-20T07:08:35;14.32;;;10.77;;
2177;SDS011;1095;50.992;6.798;2023-07-20T07:11:02;16.98;;;11.82;;
2177;SDS011;1095;50.992;6.798;2023-07-20T07:13:28;15.25;;;10.27;;
2177;SDS011;1095;50.992;6.798;2023-07-20T07:15:57;12.98;;;9.75;;
2177;SDS011;1095;50.992;6.798;2023-07-20T07:18:23;12.85;;;9.00;;
2177;SDS011;1095;50.992;6.798;2023-07-20T07:20:51;10.70;;;8.30;;
2177;SDS011;1095;50.992;6.798;2023-07-20T07:23:18;12.02;;;8.20;;
2177;SDS011;1095;50.992;6.798;2023-07-20T07:25:45;12.18;;;7.45;;
2177;SDS011;1095;50.992;6.798;2023-07-20T07:28:12;11.95;;;8.85;;
2177;SDS011;1095;50.992;6.798;2023-07-20T07:30:39;11.10;;;8.82;;
2177;SDS011;1095;50.992;6.798;2023-07-20T07:33:07;13.75;;;9.20;;
2177;SDS011;1095;50.992;6.798;2023-07-20T07:35:35;12.13;;;9.27;;
2177;SDS011;1095;50.992;6.798;2023-07-20T07:38:01;10.90;;;8.40;;
2177;SDS011;1095;50.992;6.798;2023-07-20T07:40:28;7.97;;;6.95;;
2177;SDS011;1095;50.992;6.798;2023-07-20T07:42:55;7.60;;;6.45;;
2177;SDS011;1095;50.992;6.798;2023-07-20T07:45:21;12.05;;;6.78;;
2177;SDS011;1095;50.992;6.798;2023-07-20T07:47:48;10.65;;;7.03;;
2177;SDS011;1095;50.992;6.798;2023-07-20T07:50:16;11.07;;;6.53;;
2177;SDS011;1095;50.992;6.798;2023-07-20T07:52:42;10.13;;;5.50;;
2177;SDS011;1095;50.992;6.798;2023-07-20T07:55:09;6.00;;;4.47;;
2177;SDS011;1095;50.992;6.798;2023-07-20T07:57:36;6.82;;;5.30;;
2177;SDS011;1095;50.992;6.798;2023-07-20T08:00:02;8.15;;;5.00;;
2177;SDS011;1095;50.992;6.798;2023-07-20T08:02:30;9.00;;;6.80;;
2177;SDS011;1095;50.992;6.798;2023-07-20T08:04:58;8.15;;;6.38;;
2177;SDS011;1095;50.992;6.798;2023-07-20T08:07:27;11.23;;;6.65;;
2177;SDS011;1095;50.992;6.798;2023-07-20T08:09:53;10.18;;;6.90;;
2177;SDS011;1095;50.992;6.798;2023-07-20T08:12:20;9.20;;;6.65;;
2177;SDS011;1095;50.992;6.798;2023-07-20T08:14:47;9.15;;;6.97;;
2177;SDS011;1095;50.992;6.798;2023-07-20T08:17:14;10.85;;;6.55;;
2177;SDS011;1095;50.992;6.798;2023-07-20T08:19:40;9.27;;;6.88;;
2177;SDS011;1095;50.992;6.798;2023-07-20T08:22:07;9.80;;;5.95;;
2177;SDS011;1095;50.992;6.798;2023-07-20T08:24:38;7.72;;;5.82;;
2177;SDS011;1095;50.992;6.798;2023-07-20T08:27:05;8.23;;;5.15;;
2177;SDS011;1095;50.992;6.798;2023-07-20T08:29:33;11.43;;;5.22;;
2177;SDS011;1095;50.992;6.798;2023-07-20T08:32:00;7.38;;;5.25;;
2177;SDS011;1095;50.992;6.798;2023-07-20T08:34:26;8.25;;;5.10;;
2177;SDS011;1095;50.992;6.798;2023-07-20T08:36:53;8.82;;;5.70;;
2177;SDS011;1095;50.992;6.798;2023-07-20T08:39:20;6.53;;;4.60;;
2177;SDS011;1095;50.992;6.798;2023-07-20T08:41:49;9.02;;;5.30;;
2177;SDS011;1095;50.992;6.798;2023-07-20T08:44:16;10.23;;;6.03;;
2177;SDS011;1095;50.992;6.798;2023-07-20T08:46:44;6.40;;;4.50;;
2177;SDS011;1095;50.992;6.798;2023-07-20T08:49:11;5.85;;;4.00;;
2177;SDS011;1095;50.992;6.798;2023-07-20T08:51:38;8.50;;;4.28;;
2177;SDS011;1095;50.992;6.798;2023-07-20T08:54:06;10.57;;;4.70;;
2177;SDS011;1095;50.992;6.798;2023-07-20T08:56:35;7.45;;;4.38;;
2177;SDS011;1095;50.992;6.798;2023-07-20T08:59:04;6.82;;;4.50;;
2177;SDS011;1095;50.992;6.798;2023-07-20T09:01:34;6.43;;;4.60;;
2177;SDS011;1095;50.992;6.798;2023-07-20T09:04:02;5.95;;;4.22;;
2177;SDS011;1095;50.992;6.798;2023-07-20T09:06:29;7.35;;;4.47;;
2177;SDS011;1095;50.992;6.798;2023-07-20T09:08:56;7.85;;;3.80;;
2177;SDS011;1095;50.992;6.798;2023-07-20T09:11:22;6.63;;;4.20;;
2177;SDS011;1095;50.992;6.798;2023-07-20T09:14:01;5.75;;;4.20;;
2177;SDS011;1095;50.992;6.798;2023-07-20T09:16:30;6.65;;;3.30;;
2177;SDS011;1095;50.992;6.798;2023-07-20T09:18:57;6.60;;;3.75;;
2177;SDS011;1095;50.992;6.798;2023-07-20T09:21:24;8.57;;;4.00;;
2177;SDS011;1095;50.992;6.798;2023-07-20T09:23:56;4.75;;;3.78;;
2177;SDS011;1095;50.992;6.798;2023-07-20T09:26:23;5.85;;;4.10;;
2177;SDS011;1095;50.992;6.798;2023-07-20T09:28:51;6.10;;;3.60;;
2177;SDS011;1095;50.992;6.798;2023-07-20T09:31:20;7.10;;;4.20;;
2177;SDS011;1095;50.992;6.798;2023-07-20T09:33:49;5.20;;;4.32;;
2177;SDS011;1095;50.992;6.798;2023-07-20T09:36:19;7.75;;;4.30;;
2177;SDS011;1095;50.992;6.798;2023-07-20T09:38:46;6.55;;;4.40;;
2177;SDS011;1095;50.992;6.798;2023-07-20T09:41:13;6.32;;;4.68;;
2177;SDS011;1095;50.992;6.798;2023-07-20T09:43:40;5.53;;;3.20;;
2177;SDS011;1095;50.992;6.798;2023-07-20T09:46:07;4.65;;;3.40;;
2177;SDS011;1095;50.992;6.798;2023-07-20T09:48:34;5.28;;;3.15;;
2177;SDS011;1095;50.992;6.798;2023-07-20T09:51:02;3.83;;;3.13;;
2177;SDS011;1095;50.992;6.798;2023-07-20T09:53:30;4.30;;;3.10;;
2177;SDS011;1095;50.992;6.798;2023-07-20T09:55:58;5.00;;;3.28;;
2177;SDS011;1095;50.992;6.798;2023-07-20T09:58:25;5.72;;;3.10;;
2177;SDS011;1095;50.992;6.798;2023-07-20T10:00:52;4.65;;;3.10;;
2177;SDS011;1095;50.992;6.798;2023-07-20T10:03:24;3.47;;;2.95;;
2177;SDS011;1095;50.992;6.798;2023-07-20T10:05:56;3.10;;;2.80;;
2177;SDS011;1095;50.992;6.798;2023-07-20T10:08:26;4.00;;;3.33;;
2177;SDS011;1095;50.992;6.798;2023-07-20T10:10:57;6.55;;;3.60;;
2177;SDS011;1095;50.992;6.798;2023-07-20T10:13:26;7.88;;;3.65;;
2177;SDS011;1095;50.992;6.798;2023-07-20T10:15:54;5.65;;;3.10;;
2177;SDS011;1095;50.992;6.798;2023-07-20T10:18:25;5.25;;;2.63;;
2177;SDS011;1095;50.992;6.798;2023-07-20T10:20:56;5.65;;;2.95;;
2177;SDS011;1095;50.992;6.798;2023-07-20T10:23:26;5.65;;;3.15;;
2177;SDS011;1095;50.992;6.798;2023-07-20T10:25:55;5.00;;;3.30;;
2177;SDS011;1095;50.992;6.798;2023-07-20T10:28:23;3.45;;;3.00;;
2177;SDS011;1095;50.992;6.798;2023-07-20T10:30:50;4.25;;;3.03;;
2177;SDS011;1095;50.992;6.798;2023-07-20T10:33:17;6.00;;;3.20;;
2177;SDS011;1095;50.992;6.798;2023-07-20T10:35:50;5.28;;;3.40;;
2177;SDS011;1095;50.992;6.798;2023-07-20T10:38:17;4.40;;;3.20;;
2177;SDS011;1095;50.992;6.798;2023-07-20T10:40:55;4.43;;;3.25;;
2177;SDS011;1095;50.992;6.798;2023-07-20T10:43:22;4.22;;;2.97;;
2177;SDS011;1095;50.992;6.798;2023-07-20T10:45:49;3.38;;;3.08;;
2177;SDS011;1095;50.992;6.798;2023-07-20T10:48:17;4.88;;;3.15;;
2177;SDS011;1095;50.992;6.798;2023-07-20T10:50:45;3.42;;;2.90;;
2177;SDS011;1095;50.992;6.798;2023-07-20T10:53:32;4.13;;;3.05;;
2177;SDS011;1095;50.992;6.798;2023-07-20T10:56:07;5.85;;;3.13;;
2177;SDS011;1095;50.992;6.798;2023-07-20T10:58:37;4.15;;;2.47;;
2177;SDS011;1095;50.992;6.798;2023-07-20T11:01:04;3.10;;;2.67;;
2177;SDS011;1095;50.992;6.798;2023-07-20T11:03:32;7.68;;;2.70;;
2177;SDS011;1095;50.992;6.798;2023-07-20T11:09:04;4.07;;;2.85;;
2177;SDS011;1095;50.992;6.798;2023-07-20T11:11:34;5.05;;;3.10;;
2177;SDS011;1095;50.992;6.798;2023-07-20T11:14:02;6.05;;;3.05;;
2177;SDS011;1095;50.992;6.798;2023-07-20T11:16:33;5.72;;;3.20;;
2177;SDS011;1095;50.992;6.798;2023-07-20T11:19:01;4.40;;;2.80;;
2177;SDS011;1095;50.992;6.798;2023-07-20T11:21:28;3.45;;;2.90;;
2177;SDS011;1095;50.992;6.798;2023-07-20T11:23:56;3.22;;;2.63;;
2177;SDS011;1095;50.992;6.798;2023-07-20T11:26:23;3.45;;;2.63;;
2177;SDS011;1095;50.992;6.798;2023-07-20T11:28:51;2.97;;;2.10;;
2177;SDS011;1095;50.992;6.798;2023-07-20T11:31:18;4.63;;;2.85;;
2177;SDS011;1095;50.992;6.798;2023-07-20T11:33:45;8.65;;;3.58;;
2177;SDS011;1095;50.992;6.798;2023-07-20T11:36:12;4.47;;;2.70;;
2177;SDS011;1095;50.992;6.798;2023-07-20T11:38:40;3.40;;;2.40;;
2177;SDS011;1095;50.992;6.798;2023-07-20T11:41:08;3.53;;;2.63;;
2177;SDS011;1095;50.992;6.798;2023-07-20T11:43:35;3.65;;;3.00;;
2177;SDS011;1095;50.992;6.798;2023-07-20T11:46:05;4.15;;;2.80;;
2177;SDS011;1095;50.992;6.798;2023-07-20T11:48:32;6.00;;;3.05;;
2177;SDS011;1095;50.992;6.798;2023-07-20T11:50:59;3.08;;;2.75;;
2177;SDS011;1095;50.992;6.798;2023-07-20T11:53:25;5.95;;;3.30;;
2177;SDS011;1095;50.992;6.798;2023-07-20T11:55:53;8.48;;;2.63;;
2177;SDS011;1095;50.992;6.798;2023-07-20T11:58:20;2.85;;;2.50;;
2177;SDS011;1095;50.992;6.798;2023-07-20T12:00:47;3.30;;;2.55;;
2177;SDS011;1095;50.992;6.798;2023-07-20T12:03:15;3.55;;;3.03;;
2177;SDS011;1095;50.992;6.798;2023-07-20T12:05:41;5.30;;;2.70;;
2177;SDS011;1095;50.992;6.798;2023-07-20T12:08:08;3.83;;;2.97;;
2177;SDS011;1095;50.992;6.798;2023-07-20T12:10:38;6.65;;;3.15;;
2177;SDS011;1095;50.992;6.798;2023-07-20T12:13:08;5.05;;;2.60;;
2177;SDS011;1095;50.992;6.798;2023-07-20T12:15:36;3.95;;;2.90;;
2177;SDS011;1095;50.992;6.798;2023-07-20T12:18:03;3.15;;;2.75;;
2177;SDS011;1095;50.992;6.798;2023-07-20T12:20:33;4.80;;;2.67;;
2177;SDS011;1095;50.992;6.798;2023-07-20T12:23:01;5.85;;;2.60;;
2177;SDS011;1095;50.992;6.798;2023-07-20T12:25:33;3.80;;;2.88;;
2177;SDS011;1095;50.992;6.798;2023-07-20T12:28:04;4.68;;;3.00;;
2177;SDS011;1095;50.992;6.798;2023-07-20T12:30:31;4.18;;;2.63;;
2177;SDS011;1095;50.992;6.798;2023-07-20T12:32:58;4.10;;;2.70;;
2177;SDS011;1095;50.992;6.798;2023-07-20T12:35:24;7.00;;;2.97;;
2177;SDS011;1095;50.992;6.798;2023-07-20T12:37:53;4.95;;;2.88;;
2177;SDS011;1095;50.992;6.798;2023-07-20T12:40:20;5.72;;;3.00;;
2177;SDS011;1095;50.992;6.798;2023-07-20T12:42:47;3.90;;;2.83;;
2177;SDS011;1095;50.992;6.798;2023-07-20T12:45:13;6.90;;;3.25;;
2177;SDS011;1095;50.992;6.798;2023-07-20T12:47:40;4.65;;;2.63;;
2177;SDS011;1095;50.992;6.798;2023-07-20T12:50:08;5.88;;;2.92;;
2177;SDS011;1095;50.992;6.798;2023-07-20T12:52:35;8.07;;;3.50;;
2177;SDS011;1095;50.992;6.798;2023-07-20T12:55:05;6.00;;;2.83;;
2177;SDS011;1095;50.992;6.798;2023-07-20T12:57:33;5.05;;;2.63;;
2177;SDS011;1095;50.992;6.798;2023-07-20T13:00:00;4.93;;;2.90;;
2177;SDS011;1095;50.992;6.798;2023-07-20T13:02:29;6.47;;;2.92;;
2177;SDS011;1095;50.992;6.798;2023-07-20T13:04:56;4.72;;;2.70;;
2177;SDS011;1095;50.992;6.798;2023-07-20T13:07:28;9.38;;;2.80;;
2177;SDS011;1095;50.992;6.798;2023-07-20T13:09:56;4.50;;;2.50;;
2177;SDS011;1095;50.992;6.798;2023-07-20T13:12:25;7.57;;;2.70;;
2177;SDS011;1095;50.992;6.798;2023-07-20T13:14:52;5.20;;;2.55;;
2177;SDS011;1095;50.992;6.798;2023-07-20T13:17:20;3.88;;;2.88;;
2177;SDS011;1095;50.992;6.798;2023-07-20T13:19:47;6.82;;;3.47;;
2177;SDS011;1095;50.992;6.798;2023-07-20T13:22:13;4.35;;;2.65;;
2177;SDS011;1095;50.992;6.798;2023-07-20T13:24:40;3.85;;;2.80;;
2177;SDS011;1095;50.992;6.798;2023-07-20T13:27:07;3.47;;;2.80;;
2177;SDS011;1095;50.992;6.798;2023-07-20T13:29:35;3.78;;;3.08;;
2177;SDS011;1095;50.992;6.798;2023-07-20T13:32:02;5.57;;;2.80;;
2177;SDS011;1095;50.992;6.798;2023-07-20T13:34:29;4.45;;;2.90;;
2177;SDS011;1095;50.992;6.798;2023-07-20T13:36:55;3.88;;;2.72;;
2177;SDS011;1095;50.992;6.798;2023-07-20T13:39:22;5.18;;;2.95;;
2177;SDS011;1095;50.992;6.798;2023-07-20T13:41:52;4.35;;;2.70;;
2177;SDS011;1095;50.992;6.798;2023-07-20T13:44:18;3.47;;;2.45;;
2177;SDS011;1095;50.992;6.798;2023-07-20T13:46:47;5.55;;;2.97;;
2177;SDS011;1095;50.992;6.798;2023-07-20T13:49:13;4.82;;;3.08;;
2177;SDS011;1095;50.992;6.798;2023-07-20T13:54:07;9.82;;;3.70;;
2177;SDS011;1095;50.992;6.798;2023-07-20T13:56:34;4.13;;;2.88;;
2177;SDS011;1095;50.992;6.798;2023-07-20T13:59:01;4.97;;;3.58;;
2177;SDS011;1095;50.992;6.798;2023-07-20T14:01:27;7.47;;;3.05;;
2177;SDS011;1095;50.992;6.798;2023-07-20T14:03:56;4.18;;;3.10;;
2177;SDS011;1095;50.992;6.798;2023-07-20T14:06:23;4.05;;;3.00;;
2177;SDS011;1095;50.992;6.798;2023-07-20T14:08:50;4.30;;;2.97;;
2177;SDS011;1095;50.992;6.798;2023-07-20T14:11:18;7.82;;;3.15;;
2177;SDS011;1095;50.992;6.798;2023-07-20T14:13:45;5.45;;;3.40;;
2177;SDS011;1095;50.992;6.798;2023-07-20T14:16:11;4.03;;;3.13;;
2177;SDS011;1095;50.992;6.798;2023-07-20T14:18:38;4.57;;;3.15;;
2177;SDS011;1095;50.992;6.798;2023-07-20T14:21:06;4.75;;;3.10;;
2177;SDS011;1095;50.992;6.798;2023-07-20T14:23:33;5.15;;;3.45;;
2177;SDS011;1095;50.992;6.798;2023-07-20T14:26:01;3.67;;;2.88;;
2177;SDS011;1095;50.992;6.798;2023-07-20T14:28:30;5.82;;;2.90;;
2177;SDS011;1095;50.992;6.798;2023-07-20T14:30:56;4.53;;;2.83;;
2177;SDS011;1095;50.992;6.798;2023-07-20T14:33:23;3.97;;;2.85;;
2177;SDS011;1095;50.992;6.798;2023-07-20T14:35:50;11.10;;;3.28;;
2177;SDS011;1095;50.992;6.798;2023-07-20T14:38:18;5.68;;;2.95;;
2177;SDS011;1095;50.992;6.798;2023-07-20T14:40:44;4.15;;;3.17;;
2177;SDS011;1095;50.992;6.798;2023-07-20T14:43:11;4.53;;;2.90;;
2177;SDS011;1095;50.992;6.798;2023-07-20T14:45:39;4.22;;;3.03;;
2177;SDS011;1095;50.992;6.798;2023-07-20T14:48:06;3.53;;;2.88;;
2177;SDS011;1095;50.992;6.798;2023-07-20T14:50:33;4.80;;;2.40;;
2177;SDS011;1095;50.992;6.798;2023-07-20T14:53:00;3.13;;;2.63;;
2177;SDS011;1095;50.992;6.798;2023-07-20T14:55:28;3.00;;;2.70;;
2177;SDS011;1095;50.992;6.798;2023-07-20T14:57:54;6.30;;;2.75;;
2177;SDS011;1095;50.992;6.798;2023-07-20T15:00:21;9.38;;;2.50;;
2177;SDS011;1095;50.992;6.798;2023-07-20T15:02:48;3.63;;;2.50;;
2177;SDS011;1095;50.992;6.798;2023-07-20T15:05:20;5.15;;;2.58;;
2177;SDS011;1095;50.992;6.798;2023-07-20T15:10:13;4.97;;;2.50;;
2177;SDS011;1095;50.992;6.798;2023-07-20T15:12:41;3.30;;;2.53;;
2177;SDS011;1095;50.992;6.798;2023-07-20T15:15:08;7.45;;;2.50;;
2177;SDS011;1095;50.992;6.798;2023-07-20T15:17:37;7.10;;;2.90;;
2177;SDS011;1095;50.992;6.798;2023-07-20T15:20:05;5.35;;;3.00;;
2177;SDS011;1095;50.992;6.798;2023-07-20T15:22:33;4.20;;;2.55;;
2177;SDS011;1095;50.992;6.798;2023-07-20T15:25:01;5.85;;;2.65;;